Andromeda Voyager — C6FZ6 — position and weather

sailwx.info

Track history (hours):
 
Tides and Currents Weather Stations Pressure Air Temp Water Temp Dewpoint Dewpoint Depression Visibility Wind Speed Wind Dir Waves Ship Positions

Andromeda Voyager

Last reported at 2017-Nov-24 05:37 UTC. Time now 2017-Nov-24 14:56 UTC.
Position N 01°16' E 104°06'.

Type: Tanker. MMSI: 311732000.

Date/timePositionNaut miles runAvg speedWind from/ knotsBaromVisibWave heightAir tempDewpointWater temp
2017-Nov-24 05:37N 01°16' E 104°06'212.3
2017-Nov-24 05:27N 01°15' E 104°04'4 9.9
2017-Nov-24 05:00N 01°15' E 103°60'3 5.1
2017-Nov-24 04:29N 01°14' E 103°57'3 6.7
2017-Nov-24 04:00N 01°13' E 103°54'5 9.5
2017-Nov-24 03:30N 01°11' E 103°50'5 9.1
2017-Nov-24 03:00N 01°09' E 103°46'5 9.9
2017-Nov-24 02:30N 01°05' E 103°43'5 9.7
2017-Nov-24 02:00N 01°03' E 103°38'510.2
2017-Nov-24 01:30N 01°06' E 103°34'5 9.6
2017-Nov-24 01:00N 01°09' E 103°30'5 9.5
2017-Nov-24 00:29N 01°11' E 103°25'4 8.4
2017-Nov-24 00:00N 01°13' E 103°22'4 7.1
2017-Nov-23 23:30N 01°16' E 103°19'  
Track history (hours):
 
Tides and Currents Weather Stations Pressure Air Temp Water Temp Dewpoint Dewpoint Depression Visibility Wind Speed Wind Dir Waves Ship Positions

Andromeda Voyager

Last reported at 2017-Nov-24 05:37 UTC. Time now 2017-Nov-24 14:56 UTC.
Position N 01°16' E 104°06'.

Type: Tanker. MMSI: 311732000.

Date/timePositionNaut miles runAvg speedWind from/ knotsBaromVisibWave heightAir tempDewpointWater temp
2017-Nov-24 05:37N 01°16' E 104°06'212.3
2017-Nov-24 05:27N 01°15' E 104°04'4 9.9
2017-Nov-24 05:00N 01°15' E 103°60'3 5.1
2017-Nov-24 04:29N 01°14' E 103°57'3 6.7
2017-Nov-24 04:00N 01°13' E 103°54'5 9.5
2017-Nov-24 03:30N 01°11' E 103°50'5 9.1
2017-Nov-24 03:00N 01°09' E 103°46'5 9.9
2017-Nov-24 02:30N 01°05' E 103°43'5 9.7
2017-Nov-24 02:00N 01°03' E 103°38'510.2
2017-Nov-24 01:30N 01°06' E 103°34'5 9.6
2017-Nov-24 01:00N 01°09' E 103°30'5 9.5
2017-Nov-24 00:29N 01°11' E 103°25'4 8.4
2017-Nov-24 00:00N 01°13' E 103°22'4 7.1
2017-Nov-23 23:30N 01°16' E 103°19'  

Dump ship's entire track history